Studio City, California
Current Conditions -  °F | °C
As of 10:53 PM on Saturday 25 Oct 2014 (Local Time) from KBUR Reporting Station
Clear Clear  
Wind Chill: 65°   Ceiling: Unl
Heat Index: 65°   Visibility: 10mi
Dew Point: 47°   Wind: 0mph
Humidity: 52%   Direction: NA
Pressure: 30.02"   Gusts: NA
Location:  34.15°N, 118.4°W
Report Text: KBUR 260553Z 00000KT 10SM CLR 18/08 A3002 RMK AO2 SLP154 T01830083 10256 20183 51006
Loading
Personal Weather Stations






























Interactive Weather Map
Tropical Storm Tracking
New forecast layout! Learn more

10-Day Weather Forecast

Advertisements
Track Severe Weather on mobile